Time;durP1;ratioP1;P1;durP2;ratioP2;P2;SDS_P1;SDS_P2;PMS_P1;PMS_P2;Temp;Humidity;BMP_temperature;BMP_pressure;BME280_temperature;BME280_humidity;BME280_pressure;Samples;Min_cycle;Max_cycle;Signal;HPM_P1;HPM_P2
2021/08/06 00:01:07;;;;;;;10.50;9.45;;;17.90;99.90;;;;;;4137125;28;20105;-74
2021/08/06 00:03:08;;;;;;;15.77;9.23;;;17.90;99.90;;;;;;4141930;28;20019;-74
2021/08/06 00:05:09;;;;;;;11.13;9.88;;;17.90;99.90;;;;;;4134785;28;20046;-74
2021/08/06 00:07:11;;;;;;;10.60;9.50;;;17.90;99.90;;;;;;4131231;28;20045;-73
2021/08/06 00:09:12;;;;;;;9.97;8.97;;;17.90;99.90;;;;;;4133768;28;20052;-74
2021/08/06 00:11:12;;;;;;;11.43;9.77;;;17.90;99.90;;;;;;4132590;28;20309;-74
2021/08/06 00:13:13;;;;;;;11.13;9.25;;;17.90;99.90;;;;;;4135988;28;20149;-74
2021/08/06 00:15:14;;;;;;;9.68;8.68;;;17.80;99.90;;;;;;4132707;28;20030;-74
2021/08/06 00:17:15;;;;;;;10.50;9.50;;;17.80;99.90;;;;;;4139695;28;20419;-74
2021/08/06 00:19:16;;;;;;;12.38;9.60;;;17.70;99.90;;;;;;4133854;28;20076;-74
2021/08/06 00:21:17;;;;;;;12.40;9.73;;;17.60;99.90;;;;;;4141400;28;20056;-74
2021/08/06 00:23:18;;;;;;;10.40;8.85;;;17.50;99.90;;;;;;4136934;28;20407;-74
2021/08/06 00:25:19;;;;;;;9.93;8.63;;;17.40;99.90;;;;;;4133812;28;20505;-74
2021/08/06 00:27:20;;;;;;;10.95;9.82;;;17.30;99.90;;;;;;4135734;28;20026;-74
2021/08/06 00:29:22;;;;;;;11.13;9.93;;;17.20;99.90;;;;;;4134105;28;20060;-74
2021/08/06 00:31:22;;;;;;;11.63;10.00;;;17.20;99.90;;;;;;4143959;28;20057;-74
2021/08/06 00:33:23;;;;;;;11.38;10.27;;;17.20;99.90;;;;;;4141802;28;21827;-74
2021/08/06 00:35:23;;;;;;;10.35;9.30;;;17.20;99.90;;;;;;4133010;28;20027;-74
2021/08/06 00:37:24;;;;;;;9.68;8.75;;;17.20;99.90;;;;;;4132587;28;20398;-74
2021/08/06 00:39:24;;;;;;;9.68;8.68;;;17.30;99.90;;;;;;4131162;28;20034;-74
2021/08/06 00:41:26;;;;;;;9.82;8.85;;;17.40;99.90;;;;;;4136256;28;20048;-75
2021/08/06 00:43:26;;;;;;;9.45;8.43;;;17.40;99.90;;;;;;4132131;28;20031;-75
2021/08/06 00:45:27;;;;;;;11.05;9.00;;;17.40;99.90;;;;;;4132391;28;20068;-74
2021/08/06 00:47:28;;;;;;;12.63;10.02;;;17.40;99.90;;;;;;4134817;28;20125;-75
2021/08/06 00:49:28;;;;;;;13.02;9.40;;;17.40;99.90;;;;;;4137751;28;20070;-74
2021/08/06 00:51:30;;;;;;;11.80;9.05;;;17.40;99.90;;;;;;4144489;28;20042;-74
2021/08/06 00:53:30;;;;;;;11.07;9.98;;;17.40;99.90;;;;;;4136284;28;20030;-74
2021/08/06 00:55:31;;;;;;;12.50;9.45;;;17.40;99.90;;;;;;4134464;28;20057;-74
2021/08/06 00:57:32;;;;;;;11.05;9.85;;;17.40;99.90;;;;;;4131988;28;20046;-74
2021/08/06 00:59:33;;;;;;;9.63;8.77;;;17.50;99.90;;;;;;4135043;28;20034;-73
2021/08/06 01:01:35;;;;;;;10.07;9.02;;;17.50;99.90;;;;;;4135892;28;20033;-74
2021/08/06 01:03:57;;;;;;;12.32;10.00;;;17.60;99.90;;;;;;4132555;28;20030;-74
2021/08/06 01:06:08;;;;;;;10.77;9.60;;;17.60;99.90;;;;;;4134724;28;20678;-74
2021/08/06 01:08:20;;;;;;;10.52;9.15;;;17.60;99.90;;;;;;4133676;28;20038;-74
2021/08/06 01:10:26;;;;;;;19.13;9.90;;;17.60;99.90;;;;;;4140554;28;20430;-74
2021/08/06 01:12:33;;;;;;;12.73;10.07;;;17.60;99.90;;;;;;4136120;28;20030;-74
2021/08/06 01:14:38;;;;;;;10.25;9.15;;;17.60;99.90;;;;;;4134753;28;20510;-74
2021/08/06 01:16:39;;;;;;;9.88;8.95;;;17.60;99.90;;;;;;4131495;28;20034;-73
2021/08/06 01:18:48;;;;;;;9.73;8.65;;;17.60;99.90;;;;;;4132871;28;20036;-75
2021/08/06 01:21:05;;;;;;;9.73;8.82;;;17.60;99.90;;;;;;4134278;28;20046;-74
2021/08/06 01:23:18;;;;;;;10.32;8.70;;;17.70;99.90;;;;;;4134032;28;20110;-74
2021/08/06 01:25:43;;;;;;;9.27;8.38;;;17.70;99.90;;;;;;4130785;28;20045;-74
2021/08/06 01:27:48;;;;;;;9.75;8.85;;;17.70;99.90;;;;;;4140482;28;20448;-74
2021/08/06 01:29:49;;;;;;;11.80;8.07;;;17.80;99.90;;;;;;4130865;28;20466;-74
2021/08/06 01:31:50;;;;;;;10.88;8.50;;;17.80;99.90;;;;;;4139900;28;20038;-74
2021/08/06 01:33:51;;;;;;;9.13;8.02;;;17.80;99.90;;;;;;4132864;28;20054;-74
2021/08/06 01:35:52;;;;;;;11.05;8.35;;;17.80;99.90;;;;;;4141717;28;20042;-73
2021/08/06 01:37:52;;;;;;;10.07;9.02;;;17.80;99.90;;;;;;4145384;28;20464;-74
2021/08/06 01:39:53;;;;;;;10.68;8.55;;;17.70;99.90;;;;;;4132865;28;20042;-74
2021/08/06 01:42:07;;;;;;;8.57;7.65;;;17.70;99.90;;;;;;4134620;28;20049;-74
2021/08/06 01:44:20;;;;;;;11.40;8.35;;;17.70;99.90;;;;;;4132618;28;20035;-74
2021/08/06 01:46:33;;;;;;;10.70;7.57;;;17.70;99.90;;;;;;4132970;28;20454;-74
2021/08/06 01:48:37;;;;;;;7.25;6.47;;;17.80;99.90;;;;;;4140223;28;20591;-74
2021/08/06 01:50:42;;;;;;;10.07;7.47;;;17.90;99.90;;;;;;4133253;28;20038;-74
2021/08/06 01:52:59;;;;;;;7.28;6.57;;;17.90;99.90;;;;;;4138317;28;20044;-74
2021/08/06 01:55:02;;;;;;;7.25;6.07;;;18.00;99.90;;;;;;4132992;28;20046;-74
2021/08/06 01:57:06;;;;;;;10.98;6.38;;;18.00;99.90;;;;;;4141299;28;20117;-74
2021/08/06 01:59:08;;;;;;;7.88;5.78;;;18.00;99.90;;;;;;4131856;28;20113;-74
2021/08/06 02:01:12;;;;;;;7.28;6.10;;;18.00;99.90;;;;;;4131202;28;20422;-73
2021/08/06 02:03:14;;;;;;;6.13;5.53;;;18.00;99.90;;;;;;4133161;28;20085;-74
2021/08/06 02:05:16;;;;;;;8.05;6.80;;;18.00;99.90;;;;;;4131398;28;20441;-73
2021/08/06 02:07:17;;;;;;;8.02;6.88;;;18.10;99.90;;;;;;4131900;28;20430;-73
2021/08/06 02:09:19;;;;;;;7.50;6.57;;;18.10;99.90;;;;;;4139211;28;20049;-73
2021/08/06 02:11:20;;;;;;;10.35;6.65;;;18.10;99.90;;;;;;4131488;28;20034;-72
2021/08/06 02:13:21;;;;;;;6.97;6.13;;;18.10;99.90;;;;;;4137067;28;20111;-72
2021/08/06 02:15:22;;;;;;;7.82;6.00;;;18.10;99.90;;;;;;4133374;28;21604;-73
2021/08/06 02:17:24;;;;;;;8.07;6.32;;;18.10;99.90;;;;;;4131324;28;20052;-73
2021/08/06 02:19:25;;;;;;;7.28;6.55;;;18.10;99.90;;;;;;4133658;28;20454;-73
2021/08/06 02:21:32;;;;;;;6.63;6.03;;;18.10;99.90;;;;;;4135402;28;20034;-73
2021/08/06 02:23:35;;;;;;;7.78;6.22;;;18.10;99.90;;;;;;4135022;28;20117;-73
2021/08/06 02:25:38;;;;;;;6.47;5.88;;;18.20;99.90;;;;;;4135806;28;20034;-73
2021/08/06 02:27:40;;;;;;;7.57;6.25;;;18.10;99.90;;;;;;4145080;28;20494;-73
2021/08/06 02:29:43;;;;;;;6.57;5.38;;;18.10;99.90;;;;;;4133506;28;20039;-74
2021/08/06 02:31:44;;;;;;;7.28;6.30;;;18.00;99.90;;;;;;4136210;28;20478;-72
2021/08/06 02:33:45;;;;;;;7.82;6.32;;;18.00;99.90;;;;;;4142296;28;20685;-73
2021/08/06 02:35:46;;;;;;;7.05;5.78;;;18.00;99.90;;;;;;4138405;28;20201;-72
2021/08/06 02:37:49;;;;;;;8.30;7.20;;;18.10;99.90;;;;;;4130628;28;20453;-72
2021/08/06 02:39:50;;;;;;;8.73;6.10;;;18.00;99.90;;;;;;4130762;28;20030;-73
2021/08/06 02:41:52;;;;;;;6.85;6.20;;;18.00;99.90;;;;;;4134346;28;20088;-73
2021/08/06 02:43:52;;;;;;;7.13;6.07;;;18.10;99.90;;;;;;4129206;28;20030;-73
2021/08/06 02:45:53;;;;;;;6.47;5.15;;;18.10;99.90;;;;;;4130900;28;20436;-73
2021/08/06 02:47:54;;;;;;;9.10;5.85;;;18.10;99.90;;;;;;4130864;28;20061;-73
2021/08/06 02:49:55;;;;;;;6.65;5.80;;;18.20;99.90;;;;;;4132042;28;20050;-73
2021/08/06 02:51:55;;;;;;;8.50;5.88;;;18.20;99.90;;;;;;4134839;28;20098;-73
2021/08/06 02:53:56;;;;;;;7.25;5.50;;;18.20;99.90;;;;;;4130876;28;20039;-73
2021/08/06 02:55:57;;;;;;;9.00;4.80;;;18.20;99.90;;;;;;4133671;28;20410;-73
2021/08/06 02:57:58;;;;;;;7.80;5.22;;;18.20;99.90;;;;;;4132572;28;20482;-73
2021/08/06 02:59:59;;;;;;;5.25;4.75;;;18.20;99.90;;;;;;4133766;28;20174;-73
2021/08/06 03:01:59;;;;;;;5.57;4.88;;;18.20;99.90;;;;;;4137453;28;20530;-73
2021/08/06 03:04:00;;;;;;;7.60;5.38;;;18.10;99.90;;;;;;4135783;28;20035;-73
2021/08/06 03:06:01;;;;;;;6.50;5.20;;;18.00;99.90;;;;;;4137909;28;20038;-74
2021/08/06 03:08:01;;;;;;;5.85;5.15;;;18.00;99.90;;;;;;4135507;28;20027;-73
2021/08/06 03:10:05;;;;;;;6.97;4.72;;;18.00;99.90;;;;;;4133901;28;20027;-75
2021/08/06 03:12:06;;;;;;;;;;;18.00;99.90;;;;;;4140253;28;20081;-73
2021/08/06 03:14:07;;;;;;;5.53;4.40;;;18.00;99.90;;;;;;4133786;28;19914;-73
2021/08/06 03:16:08;;;;;;;5.43;4.85;;;18.10;99.90;;;;;;4134365;28;20121;-73
2021/08/06 03:18:11;;;;;;;5.05;4.53;;;18.10;99.90;;;;;;4138274;28;20030;-72
2021/08/06 03:20:15;;;;;;;5.28;4.10;;;18.20;99.90;;;;;;4136616;28;20117;-73
2021/08/06 03:22:15;;;;;;;4.82;4.32;;;18.30;99.90;;;;;;4133242;28;20026;-73
2021/08/06 03:24:16;;;;;;;7.28;4.47;;;18.30;99.90;;;;;;4133312;28;20104;-73
2021/08/06 03:26:17;;;;;;;5.65;4.10;;;18.30;99.90;;;;;;4134286;28;20385;-74
2021/08/06 03:28:17;;;;;;;5.53;4.75;;;18.30;99.90;;;;;;4134815;28;20434;-73
2021/08/06 03:30:18;;;;;;;7.72;5.03;;;18.30;99.90;;;;;;4133321;28;20056;-73
2021/08/06 03:32:19;;;;;;;5.65;5.05;;;18.20;99.90;;;;;;4139124;28;20046;-73
2021/08/06 03:34:20;;;;;;;6.60;4.57;;;17.90;99.90;;;;;;4136124;28;20054;-72
2021/08/06 03:36:20;;;;;;;5.07;4.40;;;17.60;99.90;;;;;;4144694;28;20042;-78
2021/08/06 03:38:23;;;;;;;5.03;4.53;;;17.40;99.90;;;;;;4132768;28;20045;-79
2021/08/06 03:40:24;;;;;;;5.18;4.68;;;17.30;99.90;;;;;;4135019;28;20029;-79
2021/08/06 03:42:24;;;;;;;5.05;4.55;;;17.10;99.90;;;;;;4136004;28;20042;-77
2021/08/06 03:44:25;;;;;;;5.85;5.22;;;17.00;99.90;;;;;;4135346;28;20105;-79
2021/08/06 03:46:26;;;;;;;5.95;5.35;;;17.00;99.90;;;;;;4134494;28;20043;-79
2021/08/06 03:48:26;;;;;;;6.65;6.05;;;17.00;99.90;;;;;;4137899;28;20093;-79
2021/08/06 03:50:27;;;;;;;5.60;5.10;;;16.80;99.90;;;;;;4133541;28;20039;-79
2021/08/06 03:52:28;;;;;;;6.65;5.95;;;16.80;99.90;;;;;;4133809;28;20793;-79
2021/08/06 03:54:28;;;;;;;6.53;5.93;;;16.70;99.90;;;;;;4142654;28;20105;-79
2021/08/06 03:56:29;;;;;;;9.63;6.22;;;16.80;99.90;;;;;;4133474;28;20030;-79
2021/08/06 03:58:29;;;;;;;8.88;7.05;;;16.80;99.90;;;;;;4135543;28;20046;-78
2021/08/06 04:00:38;;;;;;;9.93;6.85;;;16.70;99.90;;;;;;4132905;28;20031;-77
2021/08/06 04:02:39;;;;;;;8.02;7.18;;;16.70;99.90;;;;;;4138625;28;20049;-77
2021/08/06 04:04:39;;;;;;;8.52;7.10;;;16.70;99.90;;;;;;4132667;28;20425;-80
2021/08/06 04:06:40;;;;;;;7.70;6.60;;;16.70;99.90;;;;;;4141193;28;20053;-79
2021/08/06 04:08:41;;;;;;;8.90;7.28;;;16.70;99.90;;;;;;4141999;28;20032;-80
2021/08/06 04:10:41;;;;;;;8.73;6.93;;;16.60;99.90;;;;;;4142202;28;20072;-79
2021/08/06 04:12:42;;;;;;;8.85;6.68;;;16.70;99.90;;;;;;4137846;28;20030;-79
2021/08/06 04:14:43;;;;;;;8.07;7.28;;;16.60;99.90;;;;;;4135660;28;20119;-79
2021/08/06 04:16:43;;;;;;;10.27;7.05;;;16.60;99.90;;;;;;4133718;28;20030;-79
2021/08/06 04:18:44;;;;;;;8.20;7.30;;;16.60;99.90;;;;;;4140219;28;20110;-78
2021/08/06 04:20:45;;;;;;;7.72;6.65;;;16.60;99.90;;;;;;4133429;28;20040;-79
2021/08/06 04:22:45;;;;;;;10.20;7.75;;;16.60;99.90;;;;;;4134866;28;20708;-79
2021/08/06 04:24:46;;;;;;;9.18;7.45;;;16.60;99.90;;;;;;4144378;28;20052;-78
2021/08/06 04:26:47;;;;;;;9.45;7.05;;;16.60;99.90;;;;;;4145497;28;20131;-78
2021/08/06 04:28:47;;;;;;;8.25;7.32;;;16.70;99.90;;;;;;4154846;28;20049;-78
2021/08/06 04:30:48;;;;;;;11.88;7.38;;;16.60;99.90;;;;;;4134136;28;20038;-78
2021/08/06 04:32:49;;;;;;;14.73;8.00;;;16.60;99.90;;;;;;4147779;28;20046;-78
2021/08/06 04:34:49;;;;;;;8.68;7.78;;;16.70;99.90;;;;;;4136568;28;20133;-78
2021/08/06 04:36:53;;;;;;;8.02;7.22;;;16.60;99.90;;;;;;4131385;28;20066;-78
2021/08/06 04:38:54;;;;;;;7.93;7.13;;;16.70;99.90;;;;;;4144072;28;20117;-78
2021/08/06 04:40:54;;;;;;;10.65;7.22;;;16.70;99.90;;;;;;4136737;28;20031;-78
2021/08/06 04:42:55;;;;;;;10.55;7.75;;;16.60;99.90;;;;;;4133160;28;20050;-76
2021/08/06 04:44:56;;;;;;;7.95;7.15;;;16.70;99.90;;;;;;4136064;28;20036;-78
2021/08/06 04:46:57;;;;;;;8.00;6.95;;;16.70;99.90;;;;;;4137199;28;20026;-78
2021/08/06 04:48:57;;;;;;;9.07;7.22;;;16.80;99.90;;;;;;4138800;28;20049;-78
2021/08/06 04:50:58;;;;;;;8.80;6.53;;;16.80;99.90;;;;;;4135626;28;20081;-78
2021/08/06 04:52:59;;;;;;;9.73;7.10;;;16.80;99.90;;;;;;4143241;28;20579;-78
2021/08/06 04:55:00;;;;;;;7.38;6.68;;;16.90;99.90;;;;;;4133938;28;20081;-78
2021/08/06 04:57:00;;;;;;;8.52;6.93;;;16.90;99.90;;;;;;4138901;28;20053;-78
2021/08/06 04:59:01;;;;;;;7.10;6.30;;;16.90;99.90;;;;;;4131786;28;20038;-78
2021/08/06 05:01:02;;;;;;;7.10;6.28;;;16.90;99.90;;;;;;4132616;28;20031;-78
2021/08/06 05:03:02;;;;;;;10.98;7.22;;;17.00;99.90;;;;;;4137974;28;20409;-78
2021/08/06 05:05:04;;;;;;;8.52;7.05;;;17.00;99.90;;;;;;4142237;28;20200;-78
2021/08/06 05:07:05;;;;;;;8.45;6.15;;;17.00;99.90;;;;;;4140647;28;20022;-78
2021/08/06 05:09:05;;;;;;;6.75;6.05;;;17.00;99.90;;;;;;4132529;28;20037;-78
2021/08/06 05:11:06;;;;;;;8.10;6.85;;;17.00;99.90;;;;;;4138354;28;20491;-77
2021/08/06 05:13:06;;;;;;;7.43;5.95;;;17.00;99.90;;;;;;4135412;28;20367;-77
2021/08/06 05:15:07;;;;;;;6.38;5.78;;;17.00;99.90;;;;;;4134327;28;20042;-78
2021/08/06 05:17:09;;;;;;;6.47;5.57;;;17.00;99.90;;;;;;4137526;28;20030;-79
2021/08/06 05:19:09;;;;;;;6.97;5.32;;;17.10;99.90;;;;;;4138060;28;20026;-76
2021/08/06 05:21:10;;;;;;;6.78;5.85;;;17.10;99.90;;;;;;4135096;28;20026;-78
2021/08/06 05:23:11;;;;;;;7.97;5.30;;;17.10;99.90;;;;;;4130908;28;20470;-77
2021/08/06 05:25:12;;;;;;;5.85;5.35;;;17.10;99.90;;;;;;4138761;28;20069;-78
2021/08/06 05:27:12;;;;;;;6.55;5.80;;;17.10;99.90;;;;;;4144666;28;20034;-79
2021/08/06 05:29:13;;;;;;;8.70;5.57;;;17.00;99.90;;;;;;4133112;28;20164;-79
2021/08/06 05:31:14;;;;;;;5.82;5.28;;;17.00;99.90;;;;;;4133988;28;20367;-78
2021/08/06 05:33:14;;;;;;;6.65;5.55;;;17.00;99.90;;;;;;4131849;28;20027;-78
2021/08/06 05:35:16;;;;;;;6.05;5.45;;;17.00;99.90;;;;;;4133521;28;20093;-80
2021/08/06 05:37:17;;;;;;;6.38;5.40;;;17.00;99.90;;;;;;4134335;28;20129;-78
2021/08/06 05:39:17;;;;;;;9.90;5.65;;;16.90;99.90;;;;;;4132713;28;20050;-76
2021/08/06 05:41:18;;;;;;;6.18;5.22;;;16.90;99.90;;;;;;4141785;28;20886;-77
2021/08/06 05:43:18;;;;;;;7.57;5.50;;;16.90;99.90;;;;;;4139278;28;20109;-79
2021/08/06 05:45:19;;;;;;;7.35;6.28;;;16.90;99.90;;;;;;4131134;28;20433;-78
2021/08/06 05:47:20;;;;;;;6.90;6.05;;;16.90;99.90;;;;;;4134686;28;20045;-77
2021/08/06 05:49:20;;;;;;;7.47;6.60;;;16.80;99.90;;;;;;4132372;28;20421;-77
2021/08/06 05:51:21;;;;;;;8.32;6.40;;;16.80;99.90;;;;;;4132118;28;20093;-77
2021/08/06 05:53:21;;;;;;;8.43;6.32;;;16.80;99.90;;;;;;4143787;28;20037;-77
2021/08/06 05:55:22;;;;;;;6.57;5.38;;;16.80;99.90;;;;;;4133083;28;20027;-77
2021/08/06 05:57:23;;;;;;;8.45;6.00;;;16.80;99.90;;;;;;4131105;28;20042;-78
2021/08/06 05:59:23;;;;;;;7.50;5.70;;;16.80;99.90;;;;;;4137232;28;20394;-78
2021/08/06 06:01:24;;;;;;;7.47;5.82;;;16.90;99.90;;;;;;4145125;28;20045;-79
2021/08/06 06:03:24;;;;;;;6.15;5.45;;;16.90;99.90;;;;;;4139188;28;20034;-79
2021/08/06 06:05:25;;;;;;;7.80;5.70;;;16.90;99.90;;;;;;4144126;28;20461;-79
2021/08/06 06:07:27;;;;;;;6.07;5.47;;;16.90;99.90;;;;;;4132683;28;20038;-79
2021/08/06 06:09:27;;;;;;;6.70;5.32;;;17.00;99.90;;;;;;4134499;28;20026;-78
2021/08/06 06:11:28;;;;;;;7.15;5.82;;;17.00;99.90;;;;;;4134223;28;20501;-79
2021/08/06 06:13:29;;;;;;;12.77;5.70;;;17.00;99.90;;;;;;4139444;28;20038;-77
2021/08/06 06:15:30;;;;;;;5.32;4.82;;;17.00;99.90;;;;;;4132253;28;20040;-77
2021/08/06 06:17:31;;;;;;;8.23;5.32;;;16.90;99.90;;;;;;4132893;28;20563;-79
2021/08/06 06:19:33;;;;;;;7.28;6.20;;;16.90;99.90;;;;;;4138055;28;20128;-76
2021/08/06 06:21:33;;;;;;;7.72;6.95;;;16.90;99.90;;;;;;4146865;28;20156;-76
2021/08/06 06:23:34;;;;;;;11.07;6.70;;;16.90;99.90;;;;;;4131244;28;20418;-75
2021/08/06 06:25:35;;;;;;;8.43;7.53;;;17.00;99.90;;;;;;4140441;28;20045;-75
2021/08/06 06:27:50;;;;;;;7.82;7.03;;;17.00;99.90;;;;;;4140483;28;20477;-78
2021/08/06 06:29:51;;;;;;;7.38;6.57;;;17.00;99.90;;;;;;4132506;28;20042;-78
2021/08/06 06:31:51;;;;;;;7.65;6.85;;;17.00;99.90;;;;;;4132250;28;20065;-76
2021/08/06 06:33:52;;;;;;;7.90;6.60;;;17.00;99.90;;;;;;4133789;28;20117;-77
2021/08/06 06:35:53;;;;;;;9.98;6.70;;;17.10;99.90;;;;;;4131851;28;20468;-78
2021/08/06 06:37:54;;;;;;;7.47;6.65;;;17.20;99.90;;;;;;4134394;28;20066;-78
2021/08/06 06:39:55;;;;;;;7.30;6.53;;;17.30;99.90;;;;;;4130827;28;20078;-78
2021/08/06 06:41:56;;;;;;;6.85;6.15;;;17.40;99.90;;;;;;4134375;28;20034;-79
2021/08/06 06:43:56;;;;;;;7.95;7.05;;;17.60;99.90;;;;;;4137054;28;20092;-80
2021/08/06 06:45:57;;;;;;;6.72;6.05;;;17.80;99.90;;;;;;4132089;28;20144;-78
2021/08/06 06:47:58;;;;;;;6.93;6.22;;;18.00;99.90;;;;;;4130590;28;20118;-79
2021/08/06 06:49:58;;;;;;;7.68;6.90;;;18.20;99.90;;;;;;4132715;28;20720;-80
2021/08/06 06:51:59;;;;;;;7.28;6.18;;;18.30;99.90;;;;;;4130420;28;20050;-80
2021/08/06 06:54:00;;;;;;;8.07;7.38;;;18.40;99.90;;;;;;4135958;28;20037;-81
2021/08/06 06:56:00;;;;;;;7.55;6.85;;;18.50;99.90;;;;;;4155371;28;20110;-80
2021/08/06 06:58:01;;;;;;;7.90;7.20;;;18.60;99.90;;;;;;4133862;28;20097;-75
2021/08/06 07:00:02;;;;;;;8.02;7.32;;;18.70;99.90;;;;;;4131700;28;20390;-80
2021/08/06 07:02:03;;;;;;;9.10;8.23;;;18.70;99.90;;;;;;4133642;28;20375;-79
2021/08/06 07:04:04;;;;;;;9.10;8.27;;;18.80;99.90;;;;;;4132306;28;20034;-77
2021/08/06 07:06:04;;;;;;;9.15;8.30;;;18.90;99.90;;;;;;4137085;28;20046;-80
2021/08/06 07:08:05;;;;;;;9.25;8.45;;;18.90;99.90;;;;;;4133336;28;20041;-81
2021/08/06 07:10:10;;;;;;;9.43;8.52;;;18.90;99.90;;;;;;4132709;28;20057;-77
2021/08/06 07:12:11;;;;;;;8.18;7.45;;;18.90;99.90;;;;;;4132846;28;20061;-79
2021/08/06 07:14:11;;;;;;;10.43;9.52;;;18.90;99.90;;;;;;4140015;28;20049;-78
2021/08/06 07:16:12;;;;;;;9.93;8.25;;;18.80;99.90;;;;;;4142349;28;20085;-79
2021/08/06 07:18:13;;;;;;;10.40;8.45;;;18.90;99.90;;;;;;4139217;28;20138;-78
2021/08/06 07:20:17;;;;;;;9.05;8.25;;;19.00;99.90;;;;;;4132279;28;20037;-78
2021/08/06 07:22:17;;;;;;;8.35;7.55;;;19.10;99.90;;;;;;4131658;28;20033;-78
2021/08/06 07:24:18;;;;;;;9.70;8.80;;;19.30;99.90;;;;;;4134971;28;20066;-79
2021/08/06 07:26:20;;;;;;;8.82;7.93;;;19.40;99.90;;;;;;4131433;28;20126;-80
2021/08/06 07:28:20;;;;;;;9.35;8.45;;;19.30;99.90;;;;;;4133377;28;20042;-79
2021/08/06 07:30:21;;;;;;;10.77;9.43;;;19.20;99.90;;;;;;4132043;28;20907;-79
2021/08/06 07:32:22;;;;;;;11.07;9.65;;;19.10;99.90;;;;;;4133414;28;20046;-79
2021/08/06 07:34:22;;;;;;;14.32;9.20;;;19.00;99.90;;;;;;4137948;28;20100;-80
2021/08/06 07:36:23;;;;;;;13.15;11.68;;;19.10;99.90;;;;;;4130949;28;20039;-79
2021/08/06 07:38:24;;;;;;;13.75;11.45;;;19.10;99.90;;;;;;4137526;28;20394;-79
2021/08/06 07:40:25;;;;;;;13.35;12.10;;;19.10;99.90;;;;;;4130356;28;20125;-78
2021/08/06 07:42:25;;;;;;;12.82;11.57;;;19.30;99.90;;;;;;4136518;28;20034;-79
2021/08/06 07:44:26;;;;;;;10.70;9.60;;;19.40;99.90;;;;;;4130093;28;20034;-79
2021/08/06 07:46:27;;;;;;;9.93;9.02;;;19.40;99.90;;;;;;4134167;28;20034;-79
2021/08/06 07:48:28;;;;;;;10.80;9.90;;;19.40;99.90;;;;;;4136035;28;20101;-79
2021/08/06 07:50:28;;;;;;;13.43;10.57;;;19.20;99.90;;;;;;4137007;28;20042;-78
2021/08/06 07:52:29;;;;;;;10.25;9.35;;;19.10;99.90;;;;;;4133291;28;20037;-80
2021/08/06 07:54:30;;;;;;;10.07;9.18;;;19.10;99.90;;;;;;4134247;28;20049;-78
2021/08/06 07:56:30;;;;;;;11.00;9.50;;;19.20;99.90;;;;;;4135547;28;20117;-79
2021/08/06 07:58:32;;;;;;;10.43;9.25;;;19.40;99.90;;;;;;4134251;28;20458;-78
2021/08/06 08:00:33;;;;;;;9.68;8.75;;;19.40;99.90;;;;;;4140943;28;20022;-78
2021/08/06 08:02:36;;;;;;;11.18;9.90;;;19.30;99.90;;;;;;4136525;28;20122;-79
2021/08/06 08:04:37;;;;;;;12.00;9.88;;;19.30;99.90;;;;;;4133648;28;20113;-79
2021/08/06 08:06:37;;;;;;;10.73;9.63;;;19.30;99.90;;;;;;4134525;28;20041;-77
2021/08/06 08:08:38;;;;;;;9.82;8.85;;;19.30;99.90;;;;;;4137403;28;20036;-78
2021/08/06 08:10:39;;;;;;;11.80;9.52;;;19.40;99.90;;;;;;4141111;28;20401;-78
2021/08/06 08:12:39;;;;;;;10.50;9.18;;;19.60;99.90;;;;;;4133639;28;20046;-78
2021/08/06 08:14:40;;;;;;;11.60;9.00;;;19.70;99.90;;;;;;4137018;28;20037;-77
2021/08/06 08:16:41;;;;;;;12.73;9.30;;;19.70;99.90;;;;;;4139106;28;20041;-77
2021/08/06 08:18:42;;;;;;;11.50;9.93;;;19.80;99.90;;;;;;4141895;28;20392;-77
2021/08/06 08:20:43;;;;;;;10.90;9.32;;;20.10;99.90;;;;;;4137664;28;20033;-78
2021/08/06 08:22:43;;;;;;;12.60;9.80;;;20.50;99.90;;;;;;4133778;28;20097;-79
2021/08/06 08:24:45;;;;;;;9.07;7.28;;;20.50;99.90;;;;;;4141750;28;20181;-78
2021/08/06 08:26:46;;;;;;;9.98;8.65;;;20.40;99.90;;;;;;4139083;28;20034;-78
2021/08/06 08:28:47;;;;;;;9.00;7.82;;;20.20;99.90;;;;;;4132493;28;20046;-75
2021/08/06 08:30:48;;;;;;;9.43;8.00;;;20.00;99.90;;;;;;4151660;28;20034;-78
2021/08/06 08:32:49;;;;;;;9.85;7.90;;;19.90;99.90;;;;;;4138249;28;20121;-78
2021/08/06 08:34:50;;;;;;;10.38;7.65;;;19.70;99.90;;;;;;4136675;28;20035;-77
2021/08/06 08:36:51;;;;;;;11.00;8.63;;;19.90;99.90;;;;;;4137614;28;20691;-78
2021/08/06 08:38:51;;;;;;;9.98;7.93;;;19.90;99.90;;;;;;4150418;28;20173;-77
2021/08/06 08:40:55;;;;;;;9.90;7.97;;;20.00;99.90;;;;;;4140034;28;20057;-78
2021/08/06 08:42:55;;;;;;;9.25;8.23;;;20.00;99.90;;;;;;4142785;28;20406;-78
2021/08/06 08:45:00;;;;;;;8.73;6.22;;;20.00;99.90;;;;;;4144702;28;20034;-79
2021/08/06 08:47:03;;;;;;;9.32;7.00;;;20.10;99.90;;;;;;4139696;28;20121;-76
2021/08/06 08:49:04;;;;;;;8.13;7.43;;;20.10;99.90;;;;;;4134154;28;20034;-78
2021/08/06 08:51:05;;;;;;;9.50;6.43;;;20.20;99.90;;;;;;4135669;28;20029;-77
2021/08/06 08:53:08;;;;;;;9.50;6.97;;;20.40;99.90;;;;;;4134801;28;20046;-78
2021/08/06 08:55:09;;;;;;;9.30;6.85;;;20.60;99.90;;;;;;4132835;28;20474;-78
2021/08/06 08:57:10;;;;;;;12.57;8.45;;;20.80;99.90;;;;;;4140364;28;20082;-76
2021/08/06 08:59:11;;;;;;;11.68;8.02;;;21.10;99.90;;;;;;4131627;28;20374;-78
2021/08/06 09:01:11;;;;;;;8.07;7.05;;;21.40;99.90;;;;;;4134152;28;20097;-77
2021/08/06 09:03:35;;;;;;;8.95;8.02;;;21.50;99.90;;;;;;4133833;28;20054;-78
2021/08/06 09:05:48;;;;;;;9.88;8.88;;;21.40;99.90;;;;;;4132948;28;20441;-77
2021/08/06 09:07:49;;;;;;;8.20;7.40;;;21.40;99.90;;;;;;4135875;28;20042;-78
2021/08/06 09:10:12;;;;;;;7.57;6.47;;;21.30;99.90;;;;;;4132514;28;20041;-78
2021/08/06 09:12:13;;;;;;;6.78;6.07;;;21.40;99.90;;;;;;4133045;28;20034;-77
2021/08/06 09:14:24;;;;;;;9.52;6.88;;;21.30;99.90;;;;;;4142311;28;20061;-79
2021/08/06 09:16:25;;;;;;;7.65;5.50;;;21.20;99.90;;;;;;4138900;28;20041;-77
2021/08/06 09:18:34;;;;;;;6.20;5.57;;;21.20;99.90;;;;;;4141455;28;20041;-78
2021/08/06 09:20:41;;;;;;;6.63;5.93;;;21.20;99.90;;;;;;4133854;28;20434;-76
2021/08/06 09:22:42;;;;;;;5.68;4.75;;;21.40;99.90;;;;;;4132289;28;20033;-78
2021/08/06 09:25:03;;;;;;;6.20;5.03;;;21.50;99.90;;;;;;4139926;28;20035;-78
2021/08/06 09:27:16;;;;;;;8.35;4.78;;;21.50;99.90;;;;;;4141844;28;20026;-78
2021/08/06 09:29:22;;;;;;;5.93;4.55;;;21.50;99.90;;;;;;4138486;28;20034;-79
2021/08/06 09:31:23;;;;;;;16.83;6.30;;;21.40;99.90;;;;;;4135663;28;20026;-77
2021/08/06 09:33:31;;;;;;;15.50;5.57;;;21.30;99.90;;;;;;4132875;28;20039;-78
2021/08/06 09:35:34;;;;;;;7.10;4.30;;;21.70;99.90;;;;;;4135238;28;20038;-78
2021/08/06 09:37:35;;;;;;;5.85;4.28;;;22.00;99.90;;;;;;4141647;28;20053;-78
2021/08/06 09:39:47;;;;;;;6.93;4.43;;;22.20;99.90;;;;;;4132623;28;20033;-78
2021/08/06 09:41:48;;;;;;;4.30;3.70;;;22.00;99.90;;;;;;4139365;28;20041;-77
2021/08/06 09:44:16;;;;;;;5.95;3.88;;;21.90;99.90;;;;;;4134324;28;20053;-79
2021/08/06 09:46:29;;;;;;;10.40;4.43;;;21.70;99.90;;;;;;4141756;28;20041;-78
2021/08/06 09:48:29;;;;;;;4.95;4.35;;;21.80;99.90;;;;;;4132899;28;20056;-78
2021/08/06 09:50:43;;;;;;;6.13;4.10;;;21.70;99.90;;;;;;4137089;28;20034;-77
2021/08/06 09:52:51;;;;;;;7.32;4.57;;;21.80;99.90;;;;;;4136973;28;20038;-75
2021/08/06 09:54:52;;;;;;;6.15;4.28;;;21.80;99.90;;;;;;4137330;28;20110;-78
2021/08/06 09:57:11;;;;;;;6.32;4.78;;;21.70;99.90;;;;;;4133233;28;20514;-78
2021/08/06 09:59:11;;;;;;;9.32;5.00;;;21.40;99.90;;;;;;4132265;28;20035;-77
2021/08/06 10:01:21;;;;;;;10.65;5.13;;;21.30;99.90;;;;;;4137799;28;20120;-78
2021/08/06 10:03:33;;;;;;;6.93;4.28;;;21.20;99.90;;;;;;4135754;28;20066;-77
2021/08/06 10:05:34;;;;;;;5.32;3.83;;;21.20;99.90;;;;;;4143177;28;20470;-79
2021/08/06 10:07:56;;;;;;;6.38;4.05;;;21.60;99.90;;;;;;4132560;28;20081;-77
2021/08/06 10:09:57;;;;;;;4.30;3.55;;;21.90;99.90;;;;;;4133447;28;20046;-78
2021/08/06 10:11:58;;;;;;;8.15;3.55;;;22.40;99.90;;;;;;4134214;28;20117;-75
2021/08/06 10:13:58;;;;;;;4.55;3.78;;;22.50;99.90;;;;;;4156412;28;20057;-77
2021/08/06 10:15:59;;;;;;;5.65;3.67;;;22.60;99.90;;;;;;4140499;28;20077;-76
2021/08/06 10:18:00;;;;;;;6.32;4.20;;;22.60;99.90;;;;;;4130665;28;20689;-75
2021/08/06 10:20:01;;;;;;;6.63;4.03;;;22.60;99.90;;;;;;4129035;28;20374;-77
2021/08/06 10:22:03;;;;;;;4.00;3.33;;;22.50;99.90;;;;;;4143723;28;20042;-76
2021/08/06 10:24:04;;;;;;;7.88;5.47;;;22.40;99.90;;;;;;4132542;28;20683;-77
2021/08/06 10:26:08;;;;;;;5.53;4.43;;;22.40;99.90;;;;;;4139994;28;20485;-76
2021/08/06 10:28:09;;;;;;;7.53;5.30;;;22.30;99.90;;;;;;4143641;28;20065;-77
2021/08/06 10:30:19;;;;;;;5.30;4.63;;;21.90;99.90;;;;;;4137300;28;20038;-77
2021/08/06 10:32:20;;;;;;;5.53;5.03;;;21.40;99.90;;;;;;4131403;28;20050;-77
2021/08/06 10:34:21;;;;;;;8.15;5.13;;;21.30;99.90;;;;;;4136255;28;23137;-76